Time;durP1;ratioP1;P1;durP2;ratioP2;P2;SDS_P1;SDS_P2;PMS_P1;PMS_P2;Temp;Humidity;BMP_temperature;BMP_pressure;BME280_temperature;BME280_humidity;BME280_pressure;Samples;Min_cycle;Max_cycle;Signal;HPM_P1;HPM_P2
2023/12/05 00:02:25;;;;;;;;;10.00;8.00;;;;;21.55;47.30;101089.36;111947;1264;19359;-30
2023/12/05 00:04:52;;;;;;;;;10.00;7.00;;;;;21.55;47.42;101089.73;112018;1249;19682;-29
2023/12/05 00:07:22;;;;;;;;;10.50;9.00;;;;;21.54;47.16;101090.44;111954;1248;20053;-29
2023/12/05 00:09:50;;;;;;;;;9.00;9.00;;;;;21.54;47.00;101089.07;111926;1250;20779;-30
2023/12/05 00:12:17;;;;;;;;;11.00;10.00;;;;;21.52;46.85;101087.70;111991;1264;18553;-29
2023/12/05 00:14:44;;;;;;;;;9.50;9.50;;;;;21.52;46.95;101084.82;111968;1264;18758;-29
2023/12/05 00:17:12;;;;;;;;;11.67;10.33;;;;;21.54;46.91;101081.65;112030;1264;19335;-29
2023/12/05 00:19:39;;;;;;;;;12.50;10.00;;;;;21.52;46.22;101084.88;111947;1250;20772;-30
2023/12/05 00:22:06;;;;;;;;;8.50;7.50;;;;;21.53;46.59;101083.84;112060;1264;20325;-30
2023/12/05 00:24:33;;;;;;;;;13.00;10.00;;;;;21.52;46.63;101085.91;111932;1256;20642;-30
2023/12/05 00:27:01;;;;;;;;;10.00;8.00;;;;;21.51;46.57;101081.21;112075;1249;19676;-30
2023/12/05 00:29:28;;;;;;;;;10.00;10.00;;;;;21.52;46.13;101083.67;111942;1259;20162;-29
2023/12/05 00:31:55;;;;;;;;;10.50;9.00;;;;;21.51;46.52;101080.73;111967;1264;20569;-29
2023/12/05 00:34:23;;;;;;;;;10.00;10.00;;;;;21.51;46.79;101075.65;111984;1264;19971;-30
2023/12/05 00:36:50;;;;;;;;;13.00;12.00;;;;;21.51;46.47;101079.58;111965;1250;20109;-30
2023/12/05 00:39:17;;;;;;;;;9.00;8.00;;;;;21.51;46.33;101070.96;112037;1249;22087;-30
2023/12/05 00:41:46;;;;;;;;;15.00;11.00;;;;;21.50;46.51;101070.30;111962;1249;18575;-30
2023/12/05 00:44:14;;;;;;;;;8.67;7.67;;;;;21.50;45.88;101071.12;111974;1264;18743;-30
2023/12/05 00:46:41;;;;;;;;;8.33;7.67;;;;;21.51;46.23;101072.16;112093;1249;21997;-30
2023/12/05 00:49:08;;;;;;;;;12.00;12.00;;;;;21.50;46.32;101072.38;111970;1264;18172;-30
2023/12/05 00:51:36;;;;;;;;;9.00;9.00;;;;;21.50;45.78;101074.17;112049;1264;18741;-29
2023/12/05 00:54:03;;;;;;;;;10.00;9.00;;;;;21.49;46.00;101072.05;112010;1248;20892;-30
2023/12/05 00:56:30;;;;;;;;;10.00;9.00;;;;;21.48;45.95;101069.48;111978;1250;19629;-30
2023/12/05 00:58:57;;;;;;;;;10.00;9.00;;;;;21.49;46.19;101068.55;112026;1264;18528;-29
2023/12/05 01:01:25;;;;;;;;;9.50;9.00;;;;;21.49;46.11;101070.63;111924;1250;20764;-30
2023/12/05 01:03:54;;;;;;;;;13.00;10.00;;;;;21.49;45.83;101067.41;112050;1250;21556;-29
2023/12/05 01:06:21;;;;;;;;;7.00;7.00;;;;;21.48;45.89;101069.05;112071;1264;21403;-29
2023/12/05 01:08:49;;;;;;;;;9.00;8.33;;;;;21.49;45.83;101066.88;111997;1249;20783;-29
2023/12/05 01:11:16;;;;;;;;;10.00;9.00;;;;;21.49;45.85;101064.74;112145;1250;19577;-29
2023/12/05 01:13:43;;;;;;;;;10.00;9.67;;;;;21.49;45.83;101060.38;112022;1249;18736;-29
2023/12/05 01:16:11;;;;;;;;;10.00;9.00;;;;;21.48;45.93;101060.92;112015;1264;22478;-29
2023/12/05 01:18:38;;;;;;;;;7.00;7.00;;;;;21.47;45.80;101060.70;112076;1249;20070;-30
2023/12/05 01:21:05;;;;;;;;;10.50;9.50;;;;;21.48;46.14;101060.38;111983;1264;20532;-30
2023/12/05 01:23:33;;;;;;;;;11.00;11.00;;;;;21.47;45.92;101057.33;112047;1256;19362;-30
2023/12/05 01:26:00;;;;;;;;;10.50;9.50;;;;;21.47;45.61;101056.13;111931;1249;20016;-29
2023/12/05 01:28:27;;;;;;;;;10.00;8.00;;;;;21.47;45.61;101050.45;112089;1264;18660;-30
2023/12/05 01:30:55;;;;;;;;;8.00;8.00;;;;;21.46;46.00;101050.77;111950;1256;19407;-30
2023/12/05 01:33:22;;;;;;;;;8.00;8.00;;;;;21.48;46.04;101048.93;112107;1264;18576;-30
2023/12/05 01:35:49;;;;;;;;;14.00;11.00;;;;;21.46;45.58;101044.51;111987;1249;20068;-30
2023/12/05 01:38:18;;;;;;;;;8.00;7.00;;;;;21.46;45.78;101045.60;112107;1249;20745;-29
2023/12/05 01:40:45;;;;;;;;;8.00;7.67;;;;;21.46;45.61;101042.61;111622;1264;402602;-30
2023/12/05 01:43:13;;;;;;;;;9.00;9.00;;;;;21.46;45.85;101042.65;112060;1249;20142;-30
2023/12/05 01:45:40;;;;;;;;;5.00;5.00;;;;;21.46;45.72;101041.95;111946;1250;19414;-30
2023/12/05 01:48:08;;;;;;;;;7.00;7.00;;;;;21.47;45.96;101040.04;112090;1264;18207;-30
2023/12/05 01:50:35;;;;;;;;;9.67;8.00;;;;;21.45;45.78;101038.23;111972;1249;21197;-30
2023/12/05 01:53:03;;;;;;;;;9.00;7.00;;;;;21.45;45.50;101029.79;112074;1264;22149;-30
2023/12/05 01:55:30;;;;;;;;;10.00;8.00;;;;;21.44;45.81;101023.36;111967;1256;18193;-30
2023/12/05 01:57:58;;;;;;;;;10.00;8.00;;;;;21.45;45.73;101022.91;112033;1248;21292;-30
2023/12/05 02:00:25;;;;;;;;;10.00;8.00;;;;;21.45;45.72;101022.16;111919;1250;22032;-30
2023/12/05 02:02:53;;;;;;;;;8.00;7.00;;;;;21.44;45.62;101018.17;112064;1264;20083;-30
2023/12/05 02:05:20;;;;;;;;;10.50;9.50;;;;;21.45;45.62;101017.14;111946;1264;19990;-30
2023/12/05 02:07:47;;;;;;;;;8.50;8.00;;;;;21.44;45.70;101017.52;112099;1256;20824;-30
2023/12/05 02:10:14;;;;;;;;;7.00;7.00;;;;;21.42;45.53;101011.69;111980;1264;18610;-30
2023/12/05 02:12:42;;;;;;;;;7.00;7.00;;;;;21.42;45.77;101005.90;112109;1250;19941;-30
2023/12/05 02:15:09;;;;;;;;;7.00;7.00;;;;;21.43;45.80;101005.42;111994;1264;20750;-30
2023/12/05 02:17:36;;;;;;;;;7.00;7.00;;;;;21.42;45.61;101004.82;112121;1256;18225;-29
2023/12/05 02:20:06;;;;;;;;;8.00;7.50;;;;;21.42;45.61;101009.07;112002;1248;20195;-30
2023/12/05 02:22:34;;;;;;;;;7.50;7.00;;;;;21.42;45.39;101009.06;112001;1250;20820;-30
2023/12/05 02:25:01;;;;;;;;;10.00;8.00;;;;;21.42;45.20;101007.16;111983;1250;18228;-30
2023/12/05 02:27:28;;;;;;;;;7.00;7.00;;;;;21.41;45.50;101009.61;112030;1264;18774;-31
2023/12/05 02:29:56;;;;;;;;;6.50;5.00;;;;;21.42;45.39;101009.67;111968;1250;20793;-30
2023/12/05 02:32:23;;;;;;;;;5.00;5.00;;;;;21.42;45.44;101011.58;112067;1249;19651;-31
2023/12/05 02:34:50;;;;;;;;;8.00;7.00;;;;;21.42;45.38;101010.48;111961;1264;20256;-31
2023/12/05 02:37:18;;;;;;;;;7.50;6.50;;;;;21.42;45.27;101009.39;112053;1264;19433;-30
2023/12/05 02:39:45;;;;;;;;;9.00;7.00;;;;;21.42;45.16;101008.69;111891;1258;18172;-31
2023/12/05 02:42:12;;;;;;;;;7.33;7.33;;;;;21.43;45.39;101009.08;112062;1264;19992;-31
2023/12/05 02:44:40;;;;;;;;;6.33;5.00;;;;;21.43;45.43;101012.39;111933;1249;20847;-31
2023/12/05 02:47:08;;;;;;;;;5.00;5.00;;;;;21.43;45.35;101015.77;112047;1249;19684;-30
2023/12/05 02:49:35;;;;;;;;;7.00;7.00;;;;;21.43;45.23;101018.61;111921;1248;20076;-30
2023/12/05 02:52:02;;;;;;;;;5.50;5.50;;;;;21.42;45.36;101010.70;112093;1264;19330;-30
2023/12/05 02:54:30;;;;;;;;;7.00;5.00;;;;;21.42;45.17;101011.69;111944;1256;18902;-30
2023/12/05 02:56:57;;;;;;;;;5.00;5.00;;;;;21.42;45.31;101012.83;112056;1264;18797;-30
2023/12/05 02:59:24;;;;;;;;;5.50;4.50;;;;;21.43;45.18;101010.22;111960;1264;20580;-30
2023/12/05 03:01:52;;;;;;;;;7.00;7.00;;;;;21.42;45.22;101010.48;112012;1250;19647;-30
2023/12/05 03:04:19;;;;;;;;;5.00;5.00;;;;;21.42;45.40;101013.80;111982;1248;18590;-31
2023/12/05 03:06:46;;;;;;;;;7.00;7.00;;;;;21.41;45.04;101012.83;111942;1264;20827;-30
2023/12/05 03:09:14;;;;;;;;;7.67;7.00;;;;;21.41;45.09;101014.25;112009;1264;19536;-30
2023/12/05 03:11:41;;;;;;;;;7.50;7.00;;;;;21.41;45.16;101012.02;111952;1264;18990;-30
2023/12/05 03:14:08;;;;;;;;;7.00;7.00;;;;;21.41;45.28;101012.23;112030;1264;22025;-30
2023/12/05 03:16:35;;;;;;;;;5.00;5.00;;;;;21.40;45.16;101015.01;111952;1251;19655;-30
2023/12/05 03:19:03;;;;;;;;;10.00;7.00;;;;;21.41;45.20;101016.27;112061;1250;20127;-31
2023/12/05 03:21:30;;;;;;;;;5.33;5.33;;;;;21.43;45.11;101018.88;111943;1249;20783;-30
2023/12/05 03:23:57;;;;;;;;;8.00;8.00;;;;;21.41;45.20;101018.65;112102;1250;20006;-31
2023/12/05 03:26:25;;;;;;;;;7.50;6.50;;;;;21.41;45.04;101018.45;111954;1264;18608;-31
2023/12/05 03:28:52;;;;;;;;;7.00;6.00;;;;;21.41;44.96;101016.70;111997;1249;20738;-30
2023/12/05 03:31:19;;;;;;;;;5.00;5.00;;;;;21.41;44.90;101021.93;111979;1264;18205;-30
2023/12/05 03:33:47;;;;;;;;;8.00;5.00;;;;;21.41;45.03;101016.15;111950;1264;20114;-30
2023/12/05 03:36:14;;;;;;;;;7.00;7.00;;;;;21.42;44.98;101013.86;111915;1250;20799;-30
2023/12/05 03:38:41;;;;;;;;;7.00;7.00;;;;;21.41;44.80;101012.23;111783;1250;19800;-30
2023/12/05 03:41:09;;;;;;;;;5.00;4.50;;;;;21.41;44.82;101007.86;111890;1250;20114;-31
2023/12/05 03:43:36;;;;;;;;;5.00;5.00;;;;;21.39;44.92;101001.38;111802;1249;20678;-31
2023/12/05 03:46:03;;;;;;;;;6.00;5.00;;;;;21.39;45.11;101001.21;111880;1265;18200;-30
2023/12/05 03:48:31;;;;;;;;;7.00;7.00;;;;;21.39;44.73;101001.00;111766;1262;20064;-30
2023/12/05 03:50:58;;;;;;;;;8.00;7.00;;;;;21.40;45.07;101003.95;111909;1265;20686;-30
2023/12/05 03:53:25;;;;;;;;;5.00;5.00;;;;;21.40;44.67;101006.34;111739;1265;18218;-30
2023/12/05 03:55:53;;;;;;;;;6.00;6.00;;;;;21.40;44.92;101003.28;111767;1265;19998;-31
2023/12/05 03:58:20;;;;;;;;;5.00;5.00;;;;;21.40;44.91;101001.64;111722;1250;20822;-30
2023/12/05 04:00:47;;;;;;;;;9.67;7.67;;;;;21.39;44.88;101005.52;111717;1265;18858;-31
2023/12/05 04:03:15;;;;;;;;;8.00;7.00;;;;;21.39;44.79;101005.95;111745;1250;20073;-30
2023/12/05 04:05:42;;;;;;;;;7.00;6.00;;;;;21.39;44.55;101006.55;111757;1249;19444;-30
2023/12/05 04:08:09;;;;;;;;;8.00;7.00;;;;;21.38;44.82;101004.70;111761;1265;19545;-31
2023/12/05 04:10:37;;;;;;;;;7.00;5.00;;;;;21.38;44.84;101000.99;111778;1265;18636;-31
2023/12/05 04:13:04;;;;;;;;;6.50;6.50;;;;;21.37;44.78;100999.90;111843;1265;19235;-31
2023/12/05 04:15:31;;;;;;;;;6.00;6.00;;;;;21.38;44.77;100994.40;111841;1257;19710;-30
2023/12/05 04:17:59;;;;;;;;;7.00;6.00;;;;;21.37;44.83;100993.14;111866;1250;20153;-30
2023/12/05 04:20:26;;;;;;;;;7.00;6.00;;;;;21.36;44.68;100990.85;111834;1251;20926;-31
2023/12/05 04:22:53;;;;;;;;;7.00;7.00;;;;;21.37;44.61;100989.81;111850;1265;18173;-31
2023/12/05 04:25:20;;;;;;;;;7.00;5.00;;;;;21.36;44.70;100986.65;111777;1265;20013;-30
2023/12/05 04:27:48;;;;;;;;;7.50;7.00;;;;;21.36;44.77;100987.52;111714;1249;20699;-30
2023/12/05 04:30:16;;;;;;;;;5.50;5.00;;;;;21.36;44.52;100987.80;111758;1263;19680;-31
2023/12/05 04:32:43;;;;;;;;;8.00;7.00;;;;;21.37;44.64;100992.11;111679;1250;20075;-30
2023/12/05 04:35:10;;;;;;;;;7.00;7.00;;;;;21.36;44.72;100990.36;111713;1265;19371;-30
2023/12/05 04:37:37;;;;;;;;;10.00;8.00;;;;;21.37;44.56;100990.47;111770;1265;19656;-30
2023/12/05 04:40:07;;;;;;;;;7.00;7.00;;;;;21.36;44.69;100989.76;111760;1257;20172;-30
2023/12/05 04:42:35;;;;;;;;;7.50;7.50;;;;;21.36;44.50;100992.16;111747;1265;19382;-31
2023/12/05 04:45:02;;;;;;;;;8.50;8.00;;;;;21.36;44.72;100988.45;111800;1257;19058;-30
2023/12/05 04:47:30;;;;;;;;;8.00;8.00;;;;;21.36;44.58;100986.65;111754;1265;18777;-30
2023/12/05 04:49:57;;;;;;;;;7.00;7.00;;;;;21.35;44.57;100987.69;111834;1253;21966;-30
2023/12/05 04:52:25;;;;;;;;;8.00;7.00;;;;;21.35;44.44;100984.96;111879;1250;19631;-31
2023/12/05 04:54:52;;;;;;;;;10.00;10.00;;;;;21.33;44.57;100984.35;111914;1265;18614;-30
2023/12/05 04:57:19;;;;;;;;;8.00;7.50;;;;;21.36;44.66;100980.55;111889;1265;21282;-30
2023/12/05 04:59:46;;;;;;;;;11.50;10.00;;;;;21.34;44.28;100978.75;111943;1265;18617;-29
2023/12/05 05:02:14;;;;;;;;;7.50;7.50;;;;;21.35;44.43;100980.21;111815;1250;20185;-30
2023/12/05 05:04:41;;;;;;;;;7.00;7.00;;;;;21.37;44.30;100973.52;111946;1250;19393;-32
2023/12/05 05:07:08;;;;;;;;;10.00;8.00;;;;;21.35;44.69;100968.07;111713;1265;18647;-31
2023/12/05 05:09:36;;;;;;;;;10.00;10.00;;;;;21.37;44.51;100973.41;111911;1265;18711;-30
2023/12/05 05:12:03;;;;;;;;;8.00;8.00;;;;;21.36;44.35;100971.83;111775;1251;20830;-30
2023/12/05 05:14:31;;;;;;;;;10.00;10.00;;;;;21.35;44.36;100975.96;111810;1260;20362;-31
2023/12/05 05:16:58;;;;;;;;;11.33;10.67;;;;;21.33;44.39;100976.61;111763;1250;20406;-30
2023/12/05 05:19:25;;;;;;;;;12.00;9.50;;;;;21.33;44.40;100977.48;111692;1265;19372;-30
2023/12/05 05:21:52;;;;;;;;;12.67;12.33;;;;;21.33;44.27;100973.23;111829;1250;20029;-30
2023/12/05 05:24:20;;;;;;;;;10.00;9.00;;;;;21.33;44.34;100968.33;111718;1250;21693;-31
2023/12/05 05:26:47;;;;;;;;;11.50;10.00;;;;;21.33;44.35;100972.42;111868;1251;20741;-30
2023/12/05 05:29:14;;;;;;;;;10.00;10.00;;;;;21.32;44.22;100968.38;111795;1249;19983;-30
2023/12/05 05:31:42;;;;;;;;;13.00;11.00;;;;;21.33;44.49;100961.79;111906;1250;20096;-31
2023/12/05 05:34:09;;;;;;;;;13.00;12.00;;;;;21.33;44.22;100961.35;111731;1249;20773;-30
2023/12/05 05:36:36;;;;;;;;;10.00;10.00;;;;;21.33;44.13;100970.52;111841;1265;18624;-30
2023/12/05 05:39:04;;;;;;;;;11.00;11.00;;;;;21.33;44.47;100965.45;111721;1265;18790;-31
2023/12/05 05:41:32;;;;;;;;;12.00;10.00;;;;;21.32;44.25;100963.58;111891;1249;20810;-30
2023/12/05 05:43:59;;;;;;;;;12.67;11.00;;;;;21.31;44.57;100956.94;111730;1257;18820;-31
2023/12/05 05:46:26;;;;;;;;;16.00;12.00;;;;;21.37;44.06;100961.75;111960;1265;20044;-30
2023/12/05 05:48:54;;;;;;;;;11.00;11.00;;;;;21.35;44.24;100960.49;111759;1250;20780;-30
2023/12/05 05:51:21;;;;;;;;;12.00;10.67;;;;;21.39;44.10;100959.58;111967;1250;21256;-30
2023/12/05 05:53:48;;;;;;;;;18.50;15.50;;;;;21.38;43.98;100961.04;111789;1257;21227;-30
2023/12/05 05:56:16;;;;;;;;;16.33;15.33;;;;;21.36;44.38;100963.71;111852;1265;19400;-30
2023/12/05 05:58:43;;;;;;;;;12.00;11.33;;;;;21.37;44.62;100962.23;111835;1257;20012;-30
2023/12/05 06:01:10;;;;;;;;;10.00;10.00;;;;;21.46;44.69;100964.71;111693;1265;20443;-31
2023/12/05 06:03:37;;;;;;;;;12.00;12.00;;;;;21.44;44.90;100963.40;111872;1257;20660;-30
2023/12/05 06:06:05;;;;;;;;;12.00;10.00;;;;;21.45;44.95;100961.88;111726;1250;20268;-30
2023/12/05 06:08:32;;;;;;;;;12.50;10.00;;;;;21.41;44.77;100967.92;111916;1250;20194;-30
2023/12/05 06:10:59;;;;;;;;;10.00;8.00;;;;;21.45;44.73;100966.39;111740;1265;20840;-30
2023/12/05 06:13:27;;;;;;;;;9.50;9.50;;;;;21.41;45.07;100962.90;111914;1250;19990;-31
2023/12/05 06:15:54;;;;;;;;;10.00;9.50;;;;;21.38;45.13;100966.83;111759;1250;20082;-31
2023/12/05 06:18:22;;;;;;;;;13.00;12.00;;;;;21.43;45.04;100968.25;111963;1265;19395;-30
2023/12/05 06:20:51;;;;;;;;;12.00;12.00;;;;;21.43;44.64;100970.10;111796;1249;20618;-30
2023/12/05 06:23:19;;;;;;;;;13.67;12.67;;;;;21.50;44.80;100967.66;111808;1250;20593;-30
2023/12/05 06:25:46;;;;;;;;;11.00;11.00;;;;;21.45;45.03;100965.25;112004;1265;20706;-30
2023/12/05 06:28:13;;;;;;;;;10.00;10.00;;;;;21.46;44.85;100968.85;111867;1265;18678;-30
2023/12/05 06:30:41;;;;;;;;;10.33;10.00;;;;;21.48;44.98;100975.18;111898;1259;19674;-31
2023/12/05 06:33:08;;;;;;;;;9.50;9.00;;;;;21.44;45.04;100971.47;111928;1249;20842;-30
2023/12/05 06:35:35;;;;;;;;;10.00;8.00;;;;;21.40;44.96;100975.87;111645;1265;21147;-30
2023/12/05 06:38:03;;;;;;;;;9.33;7.67;;;;;21.39;45.06;100979.14;111784;1251;20069;-30
2023/12/05 06:40:30;;;;;;;;;9.50;8.00;;;;;21.46;45.11;100976.66;111474;1267;19281;-30
2023/12/05 06:42:58;;;;;;;;;9.00;9.00;;;;;21.41;45.31;100979.58;111762;1266;18190;-30
2023/12/05 06:45:25;;;;;;;;;12.00;10.00;;;;;21.38;45.16;100977.83;111445;1251;20098;-30
2023/12/05 06:47:52;;;;;;;;;10.00;9.00;;;;;21.34;45.08;100979.89;111749;1266;19506;-31
2023/12/05 06:50:20;;;;;;;;;12.00;10.00;;;;;21.41;44.87;100974.45;111499;1251;20098;-30
2023/12/05 06:52:48;;;;;;;;;12.00;10.00;;;;;21.41;45.02;100972.71;111810;1253;20108;-30
2023/12/05 06:55:15;;;;;;;;;15.00;12.00;;;;;21.46;44.80;100969.23;111488;1266;19362;-30
2023/12/05 06:57:43;;;;;;;;;8.50;8.00;;;;;21.48;44.97;100972.84;111736;1251;20053;-30
2023/12/05 07:00:11;;;;;;;;;10.00;10.00;;;;;21.40;44.88;100973.36;111475;1266;18654;-30
2023/12/05 07:02:38;;;;;;;;;10.00;9.50;;;;;21.37;45.22;100976.63;111757;1266;19381;-30
2023/12/05 07:05:05;;;;;;;;;12.67;10.00;;;;;21.33;45.12;100972.42;111443;1251;21188;-30
2023/12/05 07:07:33;;;;;;;;;10.00;9.50;;;;;21.33;45.11;100976.35;111752;1251;20022;-31
2023/12/05 07:10:00;;;;;;;;;9.00;9.00;;;;;21.35;45.13;100966.05;111420;1251;20726;-30
2023/12/05 07:12:28;;;;;;;;;7.00;7.00;;;;;21.34;44.93;100973.56;111789;1266;20113;-31
2023/12/05 07:14:55;;;;;;;;;10.00;10.00;;;;;21.33;44.97;100974.66;111443;1267;20115;-30
2023/12/05 07:17:23;;;;;;;;;9.00;9.00;;;;;21.32;44.99;100977.33;111769;1251;21189;-31
2023/12/05 07:19:50;;;;;;;;;9.00;9.00;;;;;21.30;44.77;100974.33;111486;1251;20007;-30
2023/12/05 07:22:17;;;;;;;;;9.00;9.00;;;;;21.30;44.90;100975.67;111799;1256;20112;-29
2023/12/05 07:24:45;;;;;;;;;8.33;7.00;;;;;21.31;44.83;100971.45;111537;1266;18408;-31
2023/12/05 07:27:12;;;;;;;;;9.00;9.00;;;;;21.31;44.80;100968.77;111866;1251;18539;-30
2023/12/05 07:29:39;;;;;;;;;7.00;7.00;;;;;21.30;44.94;100969.47;111606;1251;19984;-30
2023/12/05 07:32:07;;;;;;;;;9.00;9.00;;;;;21.28;44.77;100965.93;111825;1266;20462;-30
2023/12/05 07:34:34;;;;;;;;;7.67;6.00;;;;;21.28;44.66;100963.03;111669;1251;18583;-31
2023/12/05 07:37:01;;;;;;;;;7.00;7.00;;;;;21.28;44.58;100968.21;111634;1266;20297;-31
2023/12/05 07:39:29;;;;;;;;;7.00;7.00;;;;;21.27;44.61;100966.95;111879;1250;21170;-31
2023/12/05 07:41:56;;;;;;;;;9.00;7.00;;;;;21.27;44.63;100969.30;111704;1253;19661;-30
2023/12/05 07:44:23;;;;;;;;;8.00;8.00;;;;;21.26;44.43;100968.73;111899;1265;20187;-31
2023/12/05 07:46:50;;;;;;;;;7.00;7.00;;;;;21.27;44.38;100968.52;111708;1265;19677;-31
2023/12/05 07:49:18;;;;;;;;;13.00;9.50;;;;;21.27;44.23;100964.29;111931;1250;19624;-31
2023/12/05 07:51:46;;;;;;;;;12.50;10.00;;;;;21.26;44.22;100965.65;111656;1265;19976;-31
2023/12/05 07:54:13;;;;;;;;;9.33;9.00;;;;;21.26;44.29;100970.81;111886;1257;19286;-31
2023/12/05 07:56:40;;;;;;;;;9.67;9.00;;;;;21.30;43.98;100968.87;111706;1265;18579;-31
2023/12/05 07:59:09;;;;;;;;;32.00;29.00;;;;;21.30;43.32;100969.30;111933;1265;18636;-30
2023/12/05 08:01:36;;;;;;;;;13.00;13.00;;;;;21.28;41.63;100972.45;111724;1249;21028;-31
2023/12/05 08:04:03;;;;;;;;;17.33;15.00;;;;;21.22;42.14;100973.08;111899;1265;20276;-30
2023/12/05 08:06:31;;;;;;;;;16.00;15.00;;;;;21.22;42.42;100977.82;111740;1265;20068;-30
2023/12/05 08:08:59;;;;;;;;;13.00;12.00;;;;;21.33;42.63;100977.59;111902;1259;20123;-31
2023/12/05 08:11:26;;;;;;;;;18.00;18.00;;;;;21.36;43.49;100976.67;111721;1250;18964;-30
2023/12/05 08:13:54;;;;;;;;;15.00;13.00;;;;;21.38;42.70;100980.94;111848;1265;18725;-31
2023/12/05 08:16:21;;;;;;;;;18.00;15.00;;;;;21.44;43.18;100980.79;111739;1250;21116;-31
2023/12/05 08:18:48;;;;;;;;;15.67;15.67;;;;;21.46;43.24;100975.95;111888;1249;20532;-30
2023/12/05 08:21:16;;;;;;;;;15.00;15.00;;;;;21.47;43.05;100975.95;111743;1265;18614;-30
2023/12/05 08:23:43;;;;;;;;;13.00;12.00;;;;;21.46;43.40;100974.46;111920;1250;21169;-31
2023/12/05 08:26:11;;;;;;;;;16.00;15.00;;;;;21.45;43.94;100979.65;111726;1257;20044;-31
2023/12/05 08:28:38;;;;;;;;;13.00;12.67;;;;;21.46;43.98;100979.77;111903;1257;19195;-31
2023/12/05 08:31:06;;;;;;;;;16.00;15.00;;;;;21.50;44.12;100975.67;111717;1251;20753;-31
2023/12/05 08:33:33;;;;;;;;;507.00;505.00;;;;;21.52;43.98;100976.05;111896;1257;20002;-31
2023/12/05 08:36:01;;;;;;;;;13.00;12.00;;;;;21.57;44.18;100972.69;111676;1250;21493;-31
2023/12/05 08:38:28;;;;;;;;;13.00;12.00;;;;;21.61;44.12;100976.02;111716;1251;20792;-30
2023/12/05 08:40:56;;;;;;;;;13.00;12.00;;;;;21.60;44.27;100980.05;111506;1251;18767;-31
2023/12/05 08:43:23;;;;;;;;;18.00;15.00;;;;;21.57;43.90;100980.65;111702;1266;20169;-31
2023/12/05 08:45:51;;;;;;;;;12.50;12.00;;;;;21.58;43.65;100980.16;111570;1266;20647;-31
2023/12/05 08:48:18;;;;;;;;;14.67;13.67;;;;;21.64;44.01;100981.15;111774;1252;19954;-31
2023/12/05 08:50:46;;;;;;;;;12.00;10.00;;;;;21.68;44.18;100983.07;111457;1251;20185;-31
2023/12/05 08:53:13;;;;;;;;;12.33;12.00;;;;;21.67;43.97;100987.42;111753;1251;20794;-31
2023/12/05 08:55:42;;;;;;;;;14.00;12.50;;;;;21.65;44.21;100984.80;111492;1251;20039;-30
2023/12/05 08:58:09;;;;;;;;;15.67;12.67;;;;;21.63;44.23;100982.84;111584;1251;20095;-31
2023/12/05 09:00:37;;;;;;;;;15.00;13.00;;;;;21.64;44.38;100984.10;111568;1266;19383;-31
2023/12/05 09:03:04;;;;;;;;;13.00;13.00;;;;;21.65;43.96;100984.37;111627;1251;20138;-31
2023/12/05 09:05:31;;;;;;;;;13.00;12.00;;;;;21.67;43.98;100989.39;111590;1251;20159;-31
2023/12/05 09:08:00;;;;;;;;;13.00;13.00;;;;;21.69;44.00;100988.84;111676;1251;21904;-31
2023/12/05 09:10:27;;;;;;;;;15.50;15.00;;;;;21.67;44.27;100990.70;111563;1251;20241;-31
2023/12/05 09:12:55;;;;;;;;;13.00;13.00;;;;;21.65;44.25;100989.77;111532;1266;18712;-31
2023/12/05 09:15:22;;;;;;;;;12.50;11.00;;;;;21.69;44.02;100985.20;111530;1251;20965;-31
2023/12/05 09:17:49;;;;;;;;;12.50;12.00;;;;;21.70;43.92;100984.00;111582;1266;18850;-31
2023/12/05 09:20:18;;;;;;;;;11.00;10.00;;;;;21.75;43.96;100985.64;111574;1266;18779;-31
2023/12/05 09:22:46;;;;;;;;;11.00;10.00;;;;;21.77;44.09;100983.13;111541;1251;20938;-31
2023/12/05 09:25:13;;;;;;;;;14.00;13.00;;;;;21.78;44.43;100981.98;111465;1267;18581;-30
2023/12/05 09:27:40;;;;;;;;;10.50;10.00;;;;;21.78;44.37;100978.50;111446;1255;20189;-31
2023/12/05 09:30:07;;;;;;;;;17.50;13.50;;;;;21.77;44.95;100981.60;111506;1251;20856;-31
2023/12/05 09:32:35;;;;;;;;;18.00;16.50;;;;;21.79;45.58;100971.40;111486;1251;20108;-31
2023/12/05 09:35:02;;;;;;;;;24.00;21.00;;;;;21.85;45.38;100975.34;111593;1252;20025;-31
2023/12/05 09:37:30;;;;;;;;;29.67;28.00;;;;;21.94;47.53;100972.45;111559;1251;20858;-31
2023/12/05 09:39:57;;;;;;;;;32.50;29.50;;;;;21.98;49.74;100976.55;111600;1251;21341;-31
2023/12/05 09:42:24;;;;;;;;;26.00;25.00;;;;;22.04;52.15;100973.85;111619;1251;18882;-31
2023/12/05 09:44:51;;;;;;;;;40.00;29.00;;;;;22.07;51.83;100963.20;111666;1266;19388;-31
2023/12/05 09:47:19;;;;;;;;;32.00;28.00;;;;;22.04;53.01;100959.98;111652;1251;18808;-31
2023/12/05 09:49:46;;;;;;;;;41.50;32.00;;;;;21.97;52.76;100957.13;111667;1251;18753;-31
2023/12/05 09:52:13;;;;;;;;;27.00;25.50;;;;;21.96;53.58;100958.10;111444;1266;20723;-31
2023/12/05 09:54:43;;;;;;;;;47.00;40.00;;;;;21.88;53.20;100963.08;111603;1266;19971;-31
2023/12/05 09:57:10;;;;;;;;;40.50;37.50;;;;;21.78;51.90;100960.11;111457;1266;18782;-31
2023/12/05 09:59:38;;;;;;;;;47.00;41.33;;;;;21.71;49.58;100954.66;111556;1266;19796;-31
2023/12/05 10:02:05;;;;;;;;;46.00;39.00;;;;;21.63;49.95;100954.59;111484;1251;18607;-31
2023/12/05 10:04:32;;;;;;;;;42.00;39.50;;;;;21.55;49.90;100944.13;111646;1266;18814;-30
2023/12/05 10:07:00;;;;;;;;;46.00;35.00;;;;;21.52;50.33;100943.41;111633;1251;20786;-30
2023/12/05 10:09:27;;;;;;;;;42.50;37.50;;;;;21.48;49.21;100944.27;111737;1266;18662;-30
2023/12/05 10:11:54;;;;;;;;;46.50;38.00;;;;;21.52;47.24;100941.88;111636;1250;20144;-31
2023/12/05 10:14:22;;;;;;;;;40.00;34.00;;;;;21.51;46.73;100934.96;111765;1266;20737;-31
2023/12/05 10:16:49;;;;;;;;;32.00;28.00;;;;;21.54;47.03;100935.73;111690;1251;21198;-30
2023/12/05 10:19:16;;;;;;;;;29.50;25.00;;;;;21.49;46.01;100936.27;111820;1266;20122;-30
2023/12/05 10:21:44;;;;;;;;;31.00;23.00;;;;;21.51;46.28;100937.46;111655;1251;20637;-31
2023/12/05 10:24:11;;;;;;;;;29.00;23.00;;;;;21.50;46.15;100937.90;111921;1266;18645;-31
2023/12/05 10:26:39;;;;;;;;;28.00;23.00;;;;;21.49;46.24;100935.55;111711;1251;20213;-31
2023/12/05 10:29:06;;;;;;;;;23.00;19.50;;;;;21.49;46.35;100934.58;111888;1251;22294;-30
2023/12/05 10:31:33;;;;;;;;;23.50;19.50;;;;;21.50;46.08;100935.49;111805;1249;20025;-31
2023/12/05 10:34:01;;;;;;;;;21.00;17.50;;;;;21.52;46.34;100930.43;111814;1250;20396;-30
2023/12/05 10:36:28;;;;;;;;;19.00;17.00;;;;;21.51;46.19;100932.23;111819;1265;20754;-31
2023/12/05 10:38:55;;;;;;;;;17.33;16.67;;;;;21.50;45.98;100926.95;111719;1265;18600;-31
2023/12/05 10:41:23;;;;;;;;;19.00;17.00;;;;;21.48;46.15;100924.92;111838;1265;19980;-31
2023/12/05 10:43:51;;;;;;;;;20.00;17.00;;;;;21.46;45.87;100922.58;111745;1250;20748;-30
2023/12/05 10:46:18;;;;;;;;;14.00;13.00;;;;;21.47;45.88;100922.26;111769;1250;20039;-31
2023/12/05 10:48:46;;;;;;;;;13.67;13.00;;;;;21.45;45.64;100917.40;111882;1265;20036;-31
2023/12/05 10:51:13;;;;;;;;;16.00;14.00;;;;;21.44;45.63;100914.88;111810;1264;20810;-31
2023/12/05 10:53:41;;;;;;;;;19.00;15.00;;;;;21.47;45.52;100909.01;111791;1249;18905;-31
2023/12/05 10:56:08;;;;;;;;;16.67;15.00;;;;;21.45;45.68;100908.23;111843;1249;18872;-31
2023/12/05 10:58:35;;;;;;;;;14.00;13.00;;;;;21.43;45.36;100902.02;111757;1249;20794;-31
2023/12/05 11:01:03;;;;;;;;;17.00;13.50;;;;;21.52;44.95;100897.34;111844;1250;21259;-31
2023/12/05 11:03:31;;;;;;;;;14.00;14.00;;;;;21.58;45.32;100899.10;111791;1250;20089;-31
2023/12/05 11:05:59;;;;;;;;;15.00;12.00;;;;;21.54;45.42;100898.11;111776;1250;20747;-31
2023/12/05 11:08:26;;;;;;;;;20.00;16.33;;;;;21.55;45.58;100895.44;111922;1250;20013;-31
2023/12/05 11:10:53;;;;;;;;;13.00;13.00;;;;;21.55;45.41;100889.98;111833;1265;18711;-31